sensor_id;sensor_type;location;lat;lon;timestamp;pressure;altitude;pressure_sealevel;temperature;humidity
65880;BME280;52661;51.364;6.054;2022-08-19T00:02:02;101047.13;;;20.52;82.60
65880;BME280;52661;51.364;6.054;2022-08-19T00:04:31;101038.03;;;20.64;81.87
65880;BME280;52661;51.364;6.054;2022-08-19T00:06:57;101042.34;;;20.65;82.54
65880;BME280;52661;51.364;6.054;2022-08-19T00:09:24;101049.97;;;20.61;83.21
65880;BME280;52661;51.364;6.054;2022-08-19T00:11:51;101042.00;;;20.63;82.90
65880;BME280;52661;51.364;6.054;2022-08-19T00:14:17;101045.63;;;20.51;83.32
65880;BME280;52661;51.364;6.054;2022-08-19T00:16:45;101049.75;;;20.55;83.14
65880;BME280;52661;51.364;6.054;2022-08-19T00:19:11;101056.31;;;20.49;82.78
65880;BME280;52661;51.364;6.054;2022-08-19T00:21:36;101050.75;;;20.40;83.37
65880;BME280;52661;51.364;6.054;2022-08-19T00:24:05;101057.38;;;20.30;83.46
65880;BME280;52661;51.364;6.054;2022-08-19T00:26:31;101051.31;;;20.22;83.93
65880;BME280;52661;51.364;6.054;2022-08-19T00:28:56;101047.81;;;20.09;84.55
65880;BME280;52661;51.364;6.054;2022-08-19T00:31:21;101047.59;;;20.16;84.15
65880;BME280;52661;51.364;6.054;2022-08-19T00:33:47;101052.66;;;20.18;84.72
65880;BME280;52661;51.364;6.054;2022-08-19T00:36:16;101041.41;;;20.12;84.82
65880;BME280;52661;51.364;6.054;2022-08-19T00:38:41;101050.22;;;20.32;83.39
65880;BME280;52661;51.364;6.054;2022-08-19T00:41:15;101042.19;;;20.12;83.00
65880;BME280;52661;51.364;6.054;2022-08-19T00:43:42;101042.44;;;20.05;82.10
65880;BME280;52661;51.364;6.054;2022-08-19T00:46:08;101036.38;;;19.98;82.24
65880;BME280;52661;51.364;6.054;2022-08-19T00:48:34;101041.06;;;19.88;83.13
65880;BME280;52661;51.364;6.054;2022-08-19T00:51:01;101048.34;;;19.82;82.83
65880;BME280;52661;51.364;6.054;2022-08-19T00:53:28;101048.22;;;19.73;83.38
65880;BME280;52661;51.364;6.054;2022-08-19T00:55:58;101052.09;;;19.63;83.92
65880;BME280;52661;51.364;6.054;2022-08-19T00:58:29;101048.44;;;19.91;83.00
65880;BME280;52661;51.364;6.054;2022-08-19T01:00:55;101046.84;;;20.03;82.37
65880;BME280;52661;51.364;6.054;2022-08-19T01:03:23;101050.50;;;20.00;82.06
65880;BME280;52661;51.364;6.054;2022-08-19T01:05:49;101051.66;;;19.77;83.76
65880;BME280;52661;51.364;6.054;2022-08-19T01:08:17;101050.75;;;19.80;83.41
65880;BME280;52661;51.364;6.054;2022-08-19T01:10:46;101051.41;;;19.72;83.82
65880;BME280;52661;51.364;6.054;2022-08-19T01:13:15;101037.88;;;19.77;83.86
65880;BME280;52661;51.364;6.054;2022-08-19T01:15:44;101043.03;;;19.75;84.00
65880;BME280;52661;51.364;6.054;2022-08-19T01:18:14;101045.25;;;19.80;83.78
65880;BME280;52661;51.364;6.054;2022-08-19T01:20:41;101052.06;;;19.76;83.55
65880;BME280;52661;51.364;6.054;2022-08-19T01:23:07;101056.72;;;19.66;84.32
65880;BME280;52661;51.364;6.054;2022-08-19T01:25:39;101056.63;;;19.57;84.77
65880;BME280;52661;51.364;6.054;2022-08-19T01:28:06;101065.09;;;19.62;84.39
65880;BME280;52661;51.364;6.054;2022-08-19T01:30:33;101065.75;;;19.54;84.67
65880;BME280;52661;51.364;6.054;2022-08-19T01:33:00;101061.69;;;19.58;84.24
65880;BME280;52661;51.364;6.054;2022-08-19T01:35:28;101057.97;;;19.52;84.19
65880;BME280;52661;51.364;6.054;2022-08-19T01:37:59;101056.09;;;19.49;84.68
65880;BME280;52661;51.364;6.054;2022-08-19T01:40:30;101059.47;;;19.41;84.77
65880;BME280;52661;51.364;6.054;2022-08-19T01:42:57;101061.00;;;19.29;84.65
65880;BME280;52661;51.364;6.054;2022-08-19T01:45:24;101052.41;;;19.27;83.92
65880;BME280;52661;51.364;6.054;2022-08-19T01:47:50;101060.13;;;19.20;84.54
65880;BME280;52661;51.364;6.054;2022-08-19T01:50:16;101055.50;;;19.16;83.64
65880;BME280;52661;51.364;6.054;2022-08-19T01:52:43;101057.00;;;19.17;83.30
65880;BME280;52661;51.364;6.054;2022-08-19T01:55:12;101075.22;;;19.28;84.76
65880;BME280;52661;51.364;6.054;2022-08-19T01:57:39;101076.31;;;19.43;83.96
65880;BME280;52661;51.364;6.054;2022-08-19T02:00:10;101074.31;;;19.31;84.44
65880;BME280;52661;51.364;6.054;2022-08-19T02:02:36;101071.91;;;19.20;82.80
65880;BME280;52661;51.364;6.054;2022-08-19T02:05:02;101080.47;;;19.09;82.90
65880;BME280;52661;51.364;6.054;2022-08-19T02:07:27;101083.75;;;19.04;83.24
65880;BME280;52661;51.364;6.054;2022-08-19T02:09:54;101083.53;;;18.99;83.50
65880;BME280;52661;51.364;6.054;2022-08-19T02:12:20;101083.94;;;18.97;84.42
65880;BME280;52661;51.364;6.054;2022-08-19T02:14:46;101081.31;;;19.06;84.68
65880;BME280;52661;51.364;6.054;2022-08-19T02:17:12;101075.22;;;19.28;83.85
65880;BME280;52661;51.364;6.054;2022-08-19T02:19:37;101076.31;;;19.30;84.30
65880;BME280;52661;51.364;6.054;2022-08-19T02:22:02;101080.25;;;19.29;84.81
65880;BME280;52661;51.364;6.054;2022-08-19T02:24:28;101071.56;;;19.31;84.20
65880;BME280;52661;51.364;6.054;2022-08-19T02:26:53;101074.09;;;19.25;84.73
65880;BME280;52661;51.364;6.054;2022-08-19T02:29:19;101071.13;;;19.20;85.78
65880;BME280;52661;51.364;6.054;2022-08-19T02:31:45;101069.47;;;19.09;86.76
65880;BME280;52661;51.364;6.054;2022-08-19T02:34:10;101067.88;;;18.96;87.81
65880;BME280;52661;51.364;6.054;2022-08-19T02:36:36;101079.34;;;18.94;87.89
65880;BME280;52661;51.364;6.054;2022-08-19T02:39:02;101075.81;;;19.06;87.71
65880;BME280;52661;51.364;6.054;2022-08-19T02:41:30;101080.78;;;19.11;87.64
65880;BME280;52661;51.364;6.054;2022-08-19T02:43:57;101077.38;;;19.07;88.16
65880;BME280;52661;51.364;6.054;2022-08-19T02:46:25;101076.28;;;19.05;88.79
65880;BME280;52661;51.364;6.054;2022-08-19T02:48:54;101078.56;;;19.06;89.37
65880;BME280;52661;51.364;6.054;2022-08-19T02:51:28;101078.03;;;18.99;89.83
65880;BME280;52661;51.364;6.054;2022-08-19T02:53:54;101070.94;;;18.85;90.41
65880;BME280;52661;51.364;6.054;2022-08-19T02:56:21;101064.75;;;18.81;90.77
65880;BME280;52661;51.364;6.054;2022-08-19T02:58:47;101064.13;;;18.90;89.83
65880;BME280;52661;51.364;6.054;2022-08-19T03:01:23;101063.56;;;18.82;90.22
65880;BME280;52661;51.364;6.054;2022-08-19T03:03:49;101068.31;;;18.94;89.25
65880;BME280;52661;51.364;6.054;2022-08-19T03:06:16;101072.84;;;19.01;88.96
65880;BME280;52661;51.364;6.054;2022-08-19T03:08:43;101072.63;;;19.08;87.91
65880;BME280;52661;51.364;6.054;2022-08-19T03:11:32;101074.19;;;19.09;87.21
65880;BME280;52661;51.364;6.054;2022-08-19T03:13:59;101076.28;;;19.05;87.18
65880;BME280;52661;51.364;6.054;2022-08-19T03:16:27;101072.72;;;18.92;87.56
65880;BME280;52661;51.364;6.054;2022-08-19T03:18:53;101078.88;;;18.83;88.92
65880;BME280;52661;51.364;6.054;2022-08-19T03:21:22;101082.28;;;18.87;88.80
65880;BME280;52661;51.364;6.054;2022-08-19T03:23:49;101081.94;;;18.85;89.00
65880;BME280;52661;51.364;6.054;2022-08-19T03:26:15;101081.16;;;18.85;89.22
65880;BME280;52661;51.364;6.054;2022-08-19T03:28:41;101085.25;;;18.80;89.77
65880;BME280;52661;51.364;6.054;2022-08-19T03:31:11;101084.94;;;18.91;88.24
65880;BME280;52661;51.364;6.054;2022-08-19T03:33:37;101085.66;;;18.79;88.94
65880;BME280;52661;51.364;6.054;2022-08-19T03:36:15;101074.75;;;18.75;89.88
65880;BME280;52661;51.364;6.054;2022-08-19T03:38:43;101078.88;;;18.83;89.04
65880;BME280;52661;51.364;6.054;2022-08-19T03:41:12;101080.94;;;18.79;88.94
65880;BME280;52661;51.364;6.054;2022-08-19T03:43:39;101088.78;;;18.52;91.36
65880;BME280;52661;51.364;6.054;2022-08-19T03:46:08;101090.03;;;18.47;92.61
65880;BME280;52661;51.364;6.054;2022-08-19T03:48:34;101084.84;;;18.49;92.18
65880;BME280;52661;51.364;6.054;2022-08-19T03:51:00;101087.69;;;18.46;92.63
65880;BME280;52661;51.364;6.054;2022-08-19T03:53:27;101084.81;;;18.37;93.26
65880;BME280;52661;51.364;6.054;2022-08-19T03:55:52;101092.75;;;18.18;94.22
65880;BME280;52661;51.364;6.054;2022-08-19T03:58:19;101094.69;;;18.34;93.59
65880;BME280;52661;51.364;6.054;2022-08-19T04:00:44;101088.44;;;18.34;93.48
65880;BME280;52661;51.364;6.054;2022-08-19T04:03:10;101087.13;;;18.38;93.66
65880;BME280;52661;51.364;6.054;2022-08-19T04:05:35;101086.19;;;18.29;94.33
65880;BME280;52661;51.364;6.054;2022-08-19T04:08:00;101086.00;;;18.36;94.02
65880;BME280;52661;51.364;6.054;2022-08-19T04:10:27;101091.09;;;18.37;94.11
65880;BME280;52661;51.364;6.054;2022-08-19T04:12:53;101093.16;;;18.33;94.49
65880;BME280;52661;51.364;6.054;2022-08-19T04:15:18;101091.69;;;18.29;95.39
65880;BME280;52661;51.364;6.054;2022-08-19T04:17:44;101093.16;;;18.33;94.75
65880;BME280;52661;51.364;6.054;2022-08-19T04:20:10;101085.28;;;18.19;95.77
65880;BME280;52661;51.364;6.054;2022-08-19T04:22:35;101093.56;;;18.32;94.88
65880;BME280;52661;51.364;6.054;2022-08-19T04:25:00;101091.78;;;18.25;95.63
65880;BME280;52661;51.364;6.054;2022-08-19T04:27:26;101093.25;;;18.30;94.95
65880;BME280;52661;51.364;6.054;2022-08-19T04:29:51;101091.88;;;18.22;95.91
65880;BME280;52661;51.364;6.054;2022-08-19T04:32:19;101095.22;;;18.29;95.51
65880;BME280;52661;51.364;6.054;2022-08-19T04:34:44;101094.59;;;18.38;95.16
65880;BME280;52661;51.364;6.054;2022-08-19T04:37:09;101086.19;;;18.29;96.16
65880;BME280;52661;51.364;6.054;2022-08-19T04:39:38;101083.78;;;18.31;96.05
65880;BME280;52661;51.364;6.054;2022-08-19T04:42:21;101087.16;;;18.22;96.09
65880;BME280;52661;51.364;6.054;2022-08-19T04:45:12;101085.88;;;18.27;95.59
65880;BME280;52661;51.364;6.054;2022-08-19T04:47:41;101080.03;;;18.25;95.84
65880;BME280;52661;51.364;6.054;2022-08-19T04:50:09;101089.63;;;18.16;96.13
65880;BME280;52661;51.364;6.054;2022-08-19T04:52:36;101094.81;;;18.14;96.48
65880;BME280;52661;51.364;6.054;2022-08-19T04:55:02;101099.00;;;18.19;96.41
65880;BME280;52661;51.364;6.054;2022-08-19T04:57:28;101102.19;;;18.17;96.15
65880;BME280;52661;51.364;6.054;2022-08-19T04:59:54;101104.75;;;18.25;96.01
65880;BME280;52661;51.364;6.054;2022-08-19T05:02:20;101108.09;;;18.32;95.48
65880;BME280;52661;51.364;6.054;2022-08-19T05:04:48;101110.66;;;18.39;95.00
65880;BME280;52661;51.364;6.054;2022-08-19T05:07:13;101111.34;;;18.27;95.68
65880;BME280;52661;51.364;6.054;2022-08-19T05:09:38;101105.94;;;18.24;96.34
65880;BME280;52661;51.364;6.054;2022-08-19T05:12:04;101102.28;;;18.14;97.45
65880;BME280;52661;51.364;6.054;2022-08-19T05:14:31;101111.44;;;18.24;97.12
65880;BME280;52661;51.364;6.054;2022-08-19T05:16:56;101108.97;;;18.13;97.93
65880;BME280;52661;51.364;6.054;2022-08-19T05:19:21;101103.19;;;18.24;97.05
65880;BME280;52661;51.364;6.054;2022-08-19T05:22:05;101107.66;;;18.34;96.75
65880;BME280;52661;51.364;6.054;2022-08-19T05:24:49;101108.97;;;18.29;96.83
65880;BME280;52661;51.364;6.054;2022-08-19T05:27:15;101114.44;;;18.13;97.75
65880;BME280;52661;51.364;6.054;2022-08-19T05:29:40;101120.91;;;18.06;98.67
65880;BME280;52661;51.364;6.054;2022-08-19T05:32:06;101126.66;;;17.96;99.16
65880;BME280;52661;51.364;6.054;2022-08-19T05:34:36;101126.50;;;17.87;99.97
65880;BME280;52661;51.364;6.054;2022-08-19T05:37:03;101123.56;;;17.94;100.00
65880;BME280;52661;51.364;6.054;2022-08-19T05:39:31;101119.88;;;18.00;99.93
65880;BME280;52661;51.364;6.054;2022-08-19T05:42:01;101113.84;;;18.05;99.56
65880;BME280;52661;51.364;6.054;2022-08-19T05:44:29;101113.69;;;18.12;99.09
65880;BME280;52661;51.364;6.054;2022-08-19T05:47:00;101108.97;;;18.13;98.88
65880;BME280;52661;51.364;6.054;2022-08-19T05:49:26;101107.50;;;18.25;98.21
65880;BME280;52661;51.364;6.054;2022-08-19T05:51:52;101114.88;;;18.28;97.71
65880;BME280;52661;51.364;6.054;2022-08-19T05:54:18;101112.16;;;18.11;99.04
65880;BME280;52661;51.364;6.054;2022-08-19T05:56:44;101109.81;;;18.26;98.32
65880;BME280;52661;51.364;6.054;2022-08-19T05:59:14;101120.97;;;18.35;97.74
65880;BME280;52661;51.364;6.054;2022-08-19T06:01:41;101127.19;;;18.23;98.62
65880;BME280;52661;51.364;6.054;2022-08-19T06:04:08;101131.91;;;18.23;99.40
65880;BME280;52661;51.364;6.054;2022-08-19T06:06:34;101126.03;;;18.20;100.00
65880;BME280;52661;51.364;6.054;2022-08-19T06:09:05;101131.00;;;18.42;99.22
65880;BME280;52661;51.364;6.054;2022-08-19T06:11:38;101126.38;;;18.55;98.37
65880;BME280;52661;51.364;6.054;2022-08-19T06:14:08;101131.44;;;18.40;98.88
65880;BME280;52661;51.364;6.054;2022-08-19T06:16:39;101132.06;;;18.15;100.00
65880;BME280;52661;51.364;6.054;2022-08-19T06:19:08;101132.81;;;18.16;100.00
65880;BME280;52661;51.364;6.054;2022-08-19T06:21:36;101132.72;;;18.19;100.00
65880;BME280;52661;51.364;6.054;2022-08-19T06:24:04;101127.50;;;18.25;100.00
65880;BME280;52661;51.364;6.054;2022-08-19T06:26:30;101136.75;;;18.31;100.00
65880;BME280;52661;51.364;6.054;2022-08-19T06:28:56;101140.66;;;18.34;100.00
65880;BME280;52661;51.364;6.054;2022-08-19T06:31:26;101145.00;;;18.47;100.00
65880;BME280;52661;51.364;6.054;2022-08-19T06:33:52;101141.81;;;18.49;99.59
65880;BME280;52661;51.364;6.054;2022-08-19T06:38:44;101158.69;;;18.51;98.81
65880;BME280;52661;51.364;6.054;2022-08-19T06:41:09;101160.38;;;18.61;98.33
65880;BME280;52661;51.364;6.054;2022-08-19T06:43:35;101163.72;;;18.68;97.57
65880;BME280;52661;51.364;6.054;2022-08-19T06:46:01;101161.84;;;18.65;97.18
65880;BME280;52661;51.364;6.054;2022-08-19T06:48:28;101154.09;;;18.77;96.56
65880;BME280;52661;51.364;6.054;2022-08-19T06:50:53;101161.09;;;18.78;97.28
65880;BME280;52661;51.364;6.054;2022-08-19T06:53:19;101159.00;;;18.98;96.65
65880;BME280;52661;51.364;6.054;2022-08-19T06:55:45;101153.50;;;18.98;96.38
65880;BME280;52661;51.364;6.054;2022-08-19T06:58:11;101152.13;;;18.77;96.50
65880;BME280;52661;51.364;6.054;2022-08-19T07:00:36;101162.56;;;18.82;96.88
65880;BME280;52661;51.364;6.054;2022-08-19T07:03:02;101159.88;;;18.95;96.38
65880;BME280;52661;51.364;6.054;2022-08-19T07:05:27;101152.22;;;19.02;95.77
65880;BME280;52661;51.364;6.054;2022-08-19T07:07:53;101157.25;;;19.04;95.36
65880;BME280;52661;51.364;6.054;2022-08-19T07:10:18;101169.22;;;18.97;95.09
65880;BME280;52661;51.364;6.054;2022-08-19T07:12:44;101161.47;;;18.80;95.77
65880;BME280;52661;51.364;6.054;2022-08-19T07:15:10;101165.47;;;18.91;96.15
65880;BME280;52661;51.364;6.054;2022-08-19T07:17:36;101170.31;;;18.87;95.17
65880;BME280;52661;51.364;6.054;2022-08-19T07:20:06;101167.69;;;18.96;94.95
65880;BME280;52661;51.364;6.054;2022-08-19T07:22:33;101166.50;;;19.39;93.40
65880;BME280;52661;51.364;6.054;2022-08-19T07:24:59;101167.56;;;19.70;91.73
65880;BME280;52661;51.364;6.054;2022-08-19T07:27:24;101169.97;;;19.93;89.50
65880;BME280;52661;51.364;6.054;2022-08-19T07:29:50;101173.81;;;19.83;89.15
65880;BME280;52661;51.364;6.054;2022-08-19T07:32:15;101180.88;;;19.59;89.43
65880;BME280;52661;51.364;6.054;2022-08-19T07:34:41;101167.06;;;19.46;89.82
65880;BME280;52661;51.364;6.054;2022-08-19T07:37:06;101169.84;;;19.59;90.42
65880;BME280;52661;51.364;6.054;2022-08-19T07:39:34;101181.06;;;19.52;90.50
65880;BME280;52661;51.364;6.054;2022-08-19T07:42:06;101176.25;;;19.81;90.75
65880;BME280;52661;51.364;6.054;2022-08-19T07:44:32;101180.97;;;19.93;89.55
65880;BME280;52661;51.364;6.054;2022-08-19T07:46:59;101187.59;;;20.08;89.06
65880;BME280;52661;51.364;6.054;2022-08-19T07:49:25;101190.69;;;20.10;87.51
65880;BME280;52661;51.364;6.054;2022-08-19T07:51:54;101206.44;;;19.97;88.05
65880;BME280;52661;51.364;6.054;2022-08-19T07:54:21;101188.38;;;19.84;88.92
65880;BME280;52661;51.364;6.054;2022-08-19T07:56:47;101189.56;;;19.83;89.00
65880;BME280;52661;51.364;6.054;2022-08-19T07:59:13;101192.22;;;19.86;89.28
65880;BME280;52661;51.364;6.054;2022-08-19T08:01:39;101198.97;;;19.85;88.55
65880;BME280;52661;51.364;6.054;2022-08-19T08:04:06;101202.81;;;20.00;88.72
65880;BME280;52661;51.364;6.054;2022-08-19T08:06:51;101210.00;;;20.10;89.31
65880;BME280;52661;51.364;6.054;2022-08-19T08:09:38;101205.88;;;20.15;87.72
65880;BME280;52661;51.364;6.054;2022-08-19T08:12:05;101210.84;;;20.20;87.43
65880;BME280;52661;51.364;6.054;2022-08-19T08:14:38;101216.69;;;20.22;86.78
65880;BME280;52661;51.364;6.054;2022-08-19T08:17:05;101212.72;;;20.23;87.27
65880;BME280;52661;51.364;6.054;2022-08-19T08:19:31;101213.28;;;20.05;85.40
65880;BME280;52661;51.364;6.054;2022-08-19T08:21:58;101220.00;;;20.04;87.12
65880;BME280;52661;51.364;6.054;2022-08-19T08:24:26;101220.00;;;20.17;87.34
65880;BME280;52661;51.364;6.054;2022-08-19T08:26:51;101223.66;;;20.14;87.11
65880;BME280;52661;51.364;6.054;2022-08-19T08:29:17;101222.84;;;20.26;87.44
65880;BME280;52661;51.364;6.054;2022-08-19T08:31:46;101232.59;;;20.31;85.95
65880;BME280;52661;51.364;6.054;2022-08-19T08:34:13;101220.78;;;20.18;84.03
65880;BME280;52661;51.364;6.054;2022-08-19T08:36:44;101220.34;;;20.32;83.97
65880;BME280;52661;51.364;6.054;2022-08-19T08:39:12;101224.97;;;20.47;84.31
65880;BME280;52661;51.364;6.054;2022-08-19T08:42:09;101221.09;;;20.57;83.85
65880;BME280;52661;51.364;6.054;2022-08-19T08:45:00;101218.28;;;20.70;84.00
65880;BME280;52661;51.364;6.054;2022-08-19T08:47:34;101220.94;;;20.74;82.21
65880;BME280;52661;51.364;6.054;2022-08-19T08:50:04;101228.41;;;20.86;82.05
65880;BME280;52661;51.364;6.054;2022-08-19T08:52:33;101221.47;;;20.81;81.35
65880;BME280;52661;51.364;6.054;2022-08-19T08:55:06;101224.22;;;20.81;81.81
65880;BME280;52661;51.364;6.054;2022-08-19T08:57:48;101231.88;;;20.99;82.15
65880;BME280;52661;51.364;6.054;2022-08-19T09:00:28;101230.59;;;20.91;79.92
65880;BME280;52661;51.364;6.054;2022-08-19T09:02:55;101227.81;;;20.91;80.26
65880;BME280;52661;51.364;6.054;2022-08-19T09:05:23;101230.53;;;21.03;80.53
65880;BME280;52661;51.364;6.054;2022-08-19T09:08:02;101218.66;;;21.28;79.60
65880;BME280;52661;51.364;6.054;2022-08-19T09:10:59;101227.69;;;21.50;77.83
65880;BME280;52661;51.364;6.054;2022-08-19T09:16:16;101222.03;;;21.54;74.41
65880;BME280;52661;51.364;6.054;2022-08-19T09:18:48;101221.59;;;21.55;74.90
65880;BME280;52661;51.364;6.054;2022-08-19T09:21:16;101221.47;;;21.59;74.27
65880;BME280;52661;51.364;6.054;2022-08-19T09:23:42;101227.22;;;21.74;74.82
65880;BME280;52661;51.364;6.054;2022-08-19T09:26:11;101221.69;;;21.74;73.69
65880;BME280;52661;51.364;6.054;2022-08-19T09:28:42;101218.75;;;21.68;74.00
65880;BME280;52661;51.364;6.054;2022-08-19T09:31:19;101221.38;;;21.72;75.29
65880;BME280;52661;51.364;6.054;2022-08-19T09:33:45;101218.16;;;21.95;75.30
65880;BME280;52661;51.364;6.054;2022-08-19T09:36:13;101223.44;;;21.89;74.71
65880;BME280;52661;51.364;6.054;2022-08-19T09:38:41;101219.09;;;21.79;74.32
65880;BME280;52661;51.364;6.054;2022-08-19T09:41:09;101223.16;;;21.87;74.49
65880;BME280;52661;51.364;6.054;2022-08-19T09:43:39;101220.81;;;21.86;73.94
65880;BME280;52661;51.364;6.054;2022-08-19T09:46:06;101220.00;;;22.07;75.21
65880;BME280;52661;51.364;6.054;2022-08-19T09:48:33;101219.44;;;22.12;72.69
65880;BME280;52661;51.364;6.054;2022-08-19T09:51:13;101217.94;;;22.20;72.65
65880;BME280;52661;51.364;6.054;2022-08-19T09:53:43;101212.75;;;22.31;72.37
65880;BME280;52661;51.364;6.054;2022-08-19T09:56:09;101207.06;;;22.35;73.46
65880;BME280;52661;51.364;6.054;2022-08-19T09:58:36;101206.44;;;22.40;74.06
65880;BME280;52661;51.364;6.054;2022-08-19T10:01:03;101210.63;;;22.63;73.20
65880;BME280;52661;51.364;6.054;2022-08-19T10:03:30;101219.56;;;22.67;70.23
65880;BME280;52661;51.364;6.054;2022-08-19T10:05:59;101220.66;;;22.69;72.19
65880;BME280;52661;51.364;6.054;2022-08-19T10:08:30;101220.50;;;22.73;71.36
65880;BME280;52661;51.364;6.054;2022-08-19T10:10:56;101207.31;;;22.68;72.79
65880;BME280;52661;51.364;6.054;2022-08-19T10:13:25;101214.16;;;22.54;71.14
65880;BME280;52661;51.364;6.054;2022-08-19T10:15:55;101208.91;;;22.38;71.33
65880;BME280;52661;51.364;6.054;2022-08-19T10:18:23;101209.69;;;22.47;71.05
65880;BME280;52661;51.364;6.054;2022-08-19T10:20:50;101216.91;;;22.54;72.01
65880;BME280;52661;51.364;6.054;2022-08-19T10:23:18;101206.00;;;22.41;70.82
65880;BME280;52661;51.364;6.054;2022-08-19T10:25:44;101210.31;;;22.42;71.00
65880;BME280;52661;51.364;6.054;2022-08-19T10:28:10;101207.38;;;22.37;69.63
65880;BME280;52661;51.364;6.054;2022-08-19T10:30:37;101212.88;;;22.28;69.52
65880;BME280;52661;51.364;6.054;2022-08-19T10:33:03;101210.41;;;22.30;69.34
65880;BME280;52661;51.364;6.054;2022-08-19T10:35:28;101211.09;;;22.61;69.63
65880;BME280;52661;51.364;6.054;2022-08-19T10:37:55;101204.69;;;22.82;68.73
65880;BME280;52661;51.364;6.054;2022-08-19T10:40:25;101206.66;;;22.64;66.98
65880;BME280;52661;51.364;6.054;2022-08-19T10:42:51;101204.06;;;22.69;66.52
65880;BME280;52661;51.364;6.054;2022-08-19T10:45:17;101200.53;;;22.96;68.33
65880;BME280;52661;51.364;6.054;2022-08-19T10:47:42;101201.00;;;23.22;66.96
65880;BME280;52661;51.364;6.054;2022-08-19T10:50:08;101196.22;;;23.13;62.83
65880;BME280;52661;51.364;6.054;2022-08-19T10:52:52;101197.28;;;22.97;63.16
65880;BME280;52661;51.364;6.054;2022-08-19T10:55:20;101190.06;;;23.09;63.40
65880;BME280;52661;51.364;6.054;2022-08-19T10:58:13;101188.69;;;23.04;62.46
65880;BME280;52661;51.364;6.054;2022-08-19T11:00:39;101173.91;;;23.17;63.48
65880;BME280;52661;51.364;6.054;2022-08-19T11:03:06;101176.97;;;23.28;62.76
65880;BME280;52661;51.364;6.054;2022-08-19T11:05:31;101182.78;;;23.57;64.42
65880;BME280;52661;51.364;6.054;2022-08-19T11:07:56;101187.19;;;23.73;61.21
65880;BME280;52661;51.364;6.054;2022-08-19T11:10:22;101187.44;;;23.84;61.60
65880;BME280;52661;51.364;6.054;2022-08-19T11:12:49;101189.91;;;23.82;61.88
65880;BME280;52661;51.364;6.054;2022-08-19T11:15:18;101191.72;;;23.94;61.73
65880;BME280;52661;51.364;6.054;2022-08-19T11:17:43;101187.28;;;23.87;60.23
65880;BME280;52661;51.364;6.054;2022-08-19T11:20:10;101186.22;;;23.85;59.56
65880;BME280;52661;51.364;6.054;2022-08-19T11:22:37;101181.22;;;23.98;60.02
65880;BME280;52661;51.364;6.054;2022-08-19T11:25:03;101176.44;;;23.98;60.08
65880;BME280;52661;51.364;6.054;2022-08-19T11:27:29;101175.84;;;23.94;59.26
65880;BME280;52661;51.364;6.054;2022-08-19T11:29:54;101181.41;;;23.94;59.40
65880;BME280;52661;51.364;6.054;2022-08-19T11:32:20;101173.19;;;24.00;60.56
65880;BME280;52661;51.364;6.054;2022-08-19T11:34:45;101173.91;;;24.10;58.62
65880;BME280;52661;51.364;6.054;2022-08-19T11:37:11;101172.41;;;24.09;58.21
65880;BME280;52661;51.364;6.054;2022-08-19T11:39:37;101165.59;;;24.19;57.69
65880;BME280;52661;51.364;6.054;2022-08-19T11:42:04;101162.91;;;24.24;58.33
65880;BME280;52661;51.364;6.054;2022-08-19T11:44:50;101164.41;;;24.34;58.67
65880;BME280;52661;51.364;6.054;2022-08-19T11:47:16;101174.06;;;24.39;57.92
65880;BME280;52661;51.364;6.054;2022-08-19T11:49:42;101177.53;;;24.34;57.45
65880;BME280;52661;51.364;6.054;2022-08-19T11:52:08;101168.88;;;24.32;57.34
65880;BME280;52661;51.364;6.054;2022-08-19T11:54:34;101177.97;;;24.32;59.47
65880;BME280;52661;51.364;6.054;2022-08-19T11:57:02;101180.50;;;24.21;60.82
65880;BME280;52661;51.364;6.054;2022-08-19T11:59:28;101173.78;;;24.37;61.22
65880;BME280;52661;51.364;6.054;2022-08-19T12:01:54;101179.03;;;24.35;61.75
65880;BME280;52661;51.364;6.054;2022-08-19T12:04:21;101188.66;;;24.48;63.25
65880;BME280;52661;51.364;6.054;2022-08-19T12:06:47;101188.22;;;24.65;63.12
65880;BME280;52661;51.364;6.054;2022-08-19T12:09:13;101181.44;;;24.66;62.40
65880;BME280;52661;51.364;6.054;2022-08-19T12:11:40;101186.72;;;24.78;62.81
65880;BME280;52661;51.364;6.054;2022-08-19T12:14:09;101183.03;;;24.58;62.38
65880;BME280;52661;51.364;6.054;2022-08-19T12:16:35;101180.16;;;24.52;62.98
65880;BME280;52661;51.364;6.054;2022-08-19T12:19:03;101178.69;;;24.66;59.77
65880;BME280;52661;51.364;6.054;2022-08-19T12:21:31;101179.16;;;24.88;59.37
65880;BME280;52661;51.364;6.054;2022-08-19T12:23:58;101179.81;;;24.97;59.95
65880;BME280;52661;51.364;6.054;2022-08-19T12:26:25;101175.81;;;24.98;58.23
65880;BME280;52661;51.364;6.054;2022-08-19T12:28:51;101179.59;;;24.86;58.94
65880;BME280;52661;51.364;6.054;2022-08-19T12:31:17;101182.03;;;25.08;59.64
65880;BME280;52661;51.364;6.054;2022-08-19T12:33:43;101187.13;;;25.10;58.10
65880;BME280;52661;51.364;6.054;2022-08-19T12:36:11;101175.44;;;25.06;57.27
65880;BME280;52661;51.364;6.054;2022-08-19T12:38:38;101181.97;;;25.17;58.20
65880;BME280;52661;51.364;6.054;2022-08-19T12:41:05;101168.91;;;25.09;57.06
65880;BME280;52661;51.364;6.054;2022-08-19T12:43:35;101176.22;;;25.35;57.80
65880;BME280;52661;51.364;6.054;2022-08-19T12:46:05;101174.75;;;25.11;57.23
65880;BME280;52661;51.364;6.054;2022-08-19T12:48:32;101173.63;;;25.17;57.20
65880;BME280;52661;51.364;6.054;2022-08-19T12:50:58;101178.13;;;25.44;56.58
65880;BME280;52661;51.364;6.054;2022-08-19T12:53:24;101166.34;;;25.49;56.52
65880;BME280;52661;51.364;6.054;2022-08-19T12:55:56;101174.19;;;25.51;56.14
65880;BME280;52661;51.364;6.054;2022-08-19T12:58:22;101165.19;;;25.56;56.17
65880;BME280;52661;51.364;6.054;2022-08-19T13:00:48;101170.72;;;25.85;56.54